Aviation Digital Data Service (ADDS)

Output produced by METARs form (0244 UTC 24 July 2017)
found at http://www.aviationweather.gov/adds/metars/
 
TAF TUPJ 232300Z 2400/2424 09013KT 9999 SCT020 
     PROB40 
     TEMPO 2418/2424 SHRA